Time;durP1;ratioP1;P1;durP2;ratioP2;P2;SDS_P1;SDS_P2;PMS_P1;PMS_P2;Temp;Humidity;BMP_temperature;BMP_pressure;BME280_temperature;BME280_humidity;BME280_pressure;Samples;Min_cycle;Max_cycle;Signal;HPM_P1;HPM_P2
2023/01/28 00:00:54;;;;;;;1.10;1.10;;;;;;;;;;4998498;28;20203;-89
2023/01/28 00:03:24;;;;;;;2.40;2.20;;;;;;;;;;4998701;28;20212;-89
2023/01/28 00:05:53;;;;;;;1.20;1.20;;;;;;;;;;4998310;28;20206;-89
2023/01/28 00:08:22;;;;;;;1.00;1.00;;;;;;;;;;4998306;28;20253;-90
2023/01/28 00:10:50;;;;;;;2.13;2.03;;;;;;;;;;4998620;28;20219;-89
2023/01/28 00:13:19;;;;;;;0.90;0.90;;;;;;;;;;4998493;28;20249;-89
2023/01/28 00:15:55;;;;;;;1.17;1.17;;;;;;;;;;5015802;28;20206;-89
2023/01/28 00:18:25;;;;;;;1.10;1.10;;;;;;;;;;5015604;28;20254;-89
2023/01/28 00:20:57;;;;;;;1.40;1.30;;;;;;;;;;4998006;28;20253;-89
2023/01/28 00:23:26;;;;;;;0.80;0.80;;;;;;;;;;5015484;28;20203;-89
2023/01/28 00:25:54;;;;;;;0.80;0.80;;;;;;;;;;4998304;28;20204;-89
2023/01/28 00:28:22;;;;;;;1.17;1.17;;;;;;;;;;4998334;28;20222;-89
2023/01/28 00:30:51;;;;;;;1.00;1.00;;;;;;;;;;4997265;28;20314;-89
2023/01/28 00:33:19;;;;;;;0.80;0.80;;;;;;;;;;4997961;28;20211;-89
2023/01/28 00:35:57;;;;;;;0.83;0.83;;;;;;;;;;4997751;28;20196;-89
2023/01/28 00:38:26;;;;;;;2.13;2.03;;;;;;;;;;4997657;28;20235;-89
2023/01/28 00:40:54;;;;;;;1.00;1.00;;;;;;;;;;4997834;28;20223;-89
2023/01/28 00:43:22;;;;;;;0.90;0.90;;;;;;;;;;4998034;28;20199;-89
2023/01/28 00:45:51;;;;;;;0.80;0.80;;;;;;;;;;4997967;28;20203;-89
2023/01/28 00:48:19;;;;;;;1.00;1.00;;;;;;;;;;4997930;28;20267;-89
2023/01/28 00:50:47;;;;;;;5.30;1.73;;;;;;;;;;4997374;28;20196;-89
2023/01/28 00:53:17;;;;;;;0.73;0.73;;;;;;;;;;4997415;28;20191;-89
2023/01/28 00:55:45;;;;;;;1.43;1.33;;;;;;;;;;5014746;28;20211;-89
2023/01/28 00:58:14;;;;;;;1.20;1.20;;;;;;;;;;4997539;28;20204;-89
2023/01/28 01:00:42;;;;;;;3.80;2.20;;;;;;;;;;4997516;28;20203;-89
2023/01/28 01:03:11;;;;;;;0.80;0.80;;;;;;;;;;4997531;28;20370;-89
2023/01/28 01:05:39;;;;;;;1.20;1.20;;;;;;;;;;5015395;28;20239;-89
2023/01/28 01:08:07;;;;;;;1.57;1.57;;;;;;;;;;5017170;28;20213;-89
2023/01/28 01:10:38;;;;;;;1.73;1.63;;;;;;;;;;5017089;28;20203;-89
2023/01/28 01:13:07;;;;;;;1.50;1.40;;;;;;;;;;5016751;28;20203;-89
2023/01/28 01:15:35;;;;;;;1.00;1.00;;;;;;;;;;5016943;28;20206;-89
2023/01/28 01:18:04;;;;;;;1.33;1.27;;;;;;;;;;5034495;28;20262;-89
2023/01/28 01:20:38;;;;;;;1.40;1.10;;;;;;;;;;5016624;28;20203;-89
2023/01/28 01:23:07;;;;;;;1.00;1.00;;;;;;;;;;5016828;28;20203;-89
2023/01/28 01:25:35;;;;;;;0.70;0.70;;;;;;;;;;5017029;28;20195;-89
2023/01/28 01:28:05;;;;;;;1.17;1.17;;;;;;;;;;5016671;28;20230;-89
2023/01/28 01:30:33;;;;;;;0.80;0.80;;;;;;;;;;5016517;28;20206;-89
2023/01/28 01:33:02;;;;;;;1.30;1.30;;;;;;;;;;5016528;28;20227;-89
2023/01/28 01:35:30;;;;;;;1.60;1.60;;;;;;;;;;5016513;28;20206;-89
2023/01/28 01:37:58;;;;;;;1.47;1.43;;;;;;;;;;5016571;28;20207;-89
2023/01/28 01:40:29;;;;;;;0.93;0.93;;;;;;;;;;5016498;28;20191;-89
2023/01/28 01:42:57;;;;;;;1.87;1.77;;;;;;;;;;5015828;28;20198;-90
2023/01/28 01:45:29;;;;;;;1.00;1.00;;;;;;;;;;5016461;28;20198;-89
2023/01/28 01:48:01;;;;;;;1.63;1.53;;;;;;;;;;5016391;28;20209;-89
2023/01/28 01:50:31;;;;;;;0.90;0.90;;;;;;;;;;5016106;28;20261;-88
2023/01/28 01:53:03;;;;;;;1.00;1.00;;;;;;;;;;5016371;28;20230;-89
2023/01/28 01:55:34;;;;;;;1.27;1.27;;;;;;;;;;5026476;28;20191;-88
2023/01/28 01:58:13;;;;;;;0.83;0.83;;;;;;;;;;5033615;28;20195;-89
2023/01/28 02:00:43;;;;;;;2.17;1.90;;;;;;;;;;5016149;28;20198;-89
2023/01/28 02:03:12;;;;;;;1.00;1.00;;;;;;;;;;5016538;28;20214;-89
2023/01/28 02:05:40;;;;;;;1.00;1.00;;;;;;;;;;5016091;28;20241;-89
2023/01/28 02:08:21;;;;;;;1.20;1.20;;;;;;;;;;5033526;28;20198;-89
2023/01/28 02:10:51;;;;;;;1.63;1.53;;;;;;;;;;5033765;28;20249;-89
2023/01/28 02:13:20;;;;;;;1.97;1.90;;;;;;;;;;5016478;28;20232;-89
2023/01/28 02:15:50;;;;;;;1.57;1.57;;;;;;;;;;5015937;28;20202;-89
2023/01/28 02:18:18;;;;;;;1.20;1.20;;;;;;;;;;5016539;28;20202;-89
2023/01/28 02:20:54;;;;;;;1.30;1.20;;;;;;;;;;5016029;28;20207;-89
2023/01/28 02:23:32;;;;;;;2.37;1.20;;;;;;;;;;5033431;28;20206;-89
2023/01/28 02:26:11;;;;;;;1.03;1.03;;;;;;;;;;5016221;28;20199;-89
2023/01/28 02:28:44;;;;;;;0.80;0.80;;;;;;;;;;5033742;28;20199;-89
2023/01/28 02:31:15;;;;;;;0.90;0.90;;;;;;;;;;5015970;28;20242;-89
2023/01/28 02:33:48;;;;;;;0.80;0.80;;;;;;;;;;5016062;28;20219;-90
2023/01/28 02:36:21;;;;;;;0.80;0.80;;;;;;;;;;5015979;28;20211;-89
2023/01/28 02:38:51;;;;;;;0.80;0.80;;;;;;;;;;5033629;28;20203;-89
2023/01/28 02:41:22;;;;;;;0.80;0.80;;;;;;;;;;5015777;28;20214;-88
2023/01/28 02:43:52;;;;;;;1.10;1.10;;;;;;;;;;5033245;28;20192;-89
2023/01/28 02:49:23;;;;;;;1.27;1.27;;;;;;;;;;5033814;28;20264;-89
2023/01/28 02:51:59;;;;;;;0.90;0.90;;;;;;;;;;5015791;28;20206;-88
2023/01/28 02:54:34;;;;;;;1.00;1.00;;;;;;;;;;5017825;28;20203;-89
2023/01/28 02:57:08;;;;;;;2.33;2.13;;;;;;;;;;5019743;28;20186;-89
2023/01/28 02:59:42;;;;;;;1.10;1.10;;;;;;;;;;5019807;28;20206;-89
2023/01/28 03:02:13;;;;;;;0.97;0.97;;;;;;;;;;5036641;28;20222;-89
2023/01/28 03:04:45;;;;;;;0.97;0.97;;;;;;;;;;5019216;28;20238;-89
2023/01/28 03:07:15;;;;;;;1.97;1.77;;;;;;;;;;5019651;28;20243;-89
2023/01/28 03:09:44;;;;;;;0.73;0.73;;;;;;;;;;5036629;28;20199;-89
2023/01/28 03:37:31;;;;;;;1.67;1.57;;;;;;;;;;5018838;28;20260;-89
2023/01/28 03:40:03;;;;;;;3.70;1.77;;;;;;;;;;5018633;28;20199;-89
2023/01/28 03:42:32;;;;;;;0.90;0.90;;;;;;;;;;5018571;28;20206;-89
2023/01/28 03:45:03;;;;;;;0.80;0.80;;;;;;;;;;5018430;28;20294;-89
2023/01/28 03:47:33;;;;;;;0.80;0.80;;;;;;;;;;5036139;28;20218;-89
2023/01/28 03:50:02;;;;;;;0.70;0.70;;;;;;;;;;5018408;28;20326;-89
2023/01/28 03:52:31;;;;;;;0.80;0.80;;;;;;;;;;5017997;28;20227;-89
2023/01/28 03:55:00;;;;;;;0.80;0.80;;;;;;;;;;5018549;28;20207;-89
2023/01/28 03:57:30;;;;;;;1.30;1.30;;;;;;;;;;5037016;28;20207;-87
2023/01/28 03:59:59;;;;;;;1.57;1.57;;;;;;;;;;5035669;28;20195;-89
2023/01/28 04:02:28;;;;;;;1.83;1.73;;;;;;;;;;5035596;28;20238;-89
2023/01/28 04:04:58;;;;;;;0.80;0.80;;;;;;;;;;5016994;28;20238;-89
2023/01/28 04:07:26;;;;;;;1.13;1.13;;;;;;;;;;5035496;28;20207;-89
2023/01/28 04:09:55;;;;;;;1.67;1.57;;;;;;;;;;5018354;28;20195;-89
2023/01/28 04:12:23;;;;;;;1.00;1.00;;;;;;;;;;5035121;28;20199;-89
2023/01/28 04:14:52;;;;;;;0.77;0.77;;;;;;;;;;5018098;28;20215;-89
2023/01/28 04:17:23;;;;;;;1.63;1.43;;;;;;;;;;5035126;28;20286;-89
2023/01/28 04:19:52;;;;;;;1.07;1.07;;;;;;;;;;5017656;28;20206;-90
2023/01/28 04:22:21;;;;;;;1.00;1.00;;;;;;;;;;5017985;28;20264;-89
2023/01/28 04:24:50;;;;;;;1.67;1.60;;;;;;;;;;5018183;28;20203;-89
2023/01/28 04:27:18;;;;;;;1.27;1.27;;;;;;;;;;5035330;28;20258;-89
2023/01/28 04:29:47;;;;;;;1.90;1.80;;;;;;;;;;5035465;28;20203;-89
2023/01/28 04:32:15;;;;;;;1.90;1.83;;;;;;;;;;5035354;28;20207;-89
2023/01/28 04:34:44;;;;;;;0.80;0.80;;;;;;;;;;5035216;28;20227;-89
2023/01/28 04:37:12;;;;;;;1.43;1.43;;;;;;;;;;5017684;28;20203;-89
2023/01/28 04:39:42;;;;;;;0.70;0.70;;;;;;;;;;5017315;28;20199;-88
2023/01/28 04:42:10;;;;;;;1.53;1.53;;;;;;;;;;5017354;28;20249;-89
2023/01/28 04:44:38;;;;;;;0.80;0.80;;;;;;;;;;5017329;28;20199;-89
2023/01/28 04:47:07;;;;;;;1.20;1.20;;;;;;;;;;5017827;28;20347;-89
2023/01/28 04:49:35;;;;;;;0.80;0.80;;;;;;;;;;5034505;28;20233;-89
2023/01/28 04:52:04;;;;;;;0.80;0.80;;;;;;;;;;5017314;28;20199;-89
2023/01/28 04:54:32;;;;;;;1.13;1.13;;;;;;;;;;5017369;28;20226;-89
2023/01/28 04:57:02;;;;;;;0.90;0.90;;;;;;;;;;5017234;28;20207;-89
2023/01/28 04:59:30;;;;;;;1.03;1.03;;;;;;;;;;5017438;28;20202;-89
2023/01/28 05:01:59;;;;;;;1.63;1.53;;;;;;;;;;5016823;28;20218;-89
2023/01/28 05:04:27;;;;;;;11.03;1.47;;;;;;;;;;5016712;28;20235;-89
2023/01/28 05:06:57;;;;;;;1.23;1.23;;;;;;;;;;5017290;28;20249;-89
2023/01/28 05:09:25;;;;;;;2.93;1.33;;;;;;;;;;5016914;28;20207;-89
2023/01/28 05:11:54;;;;;;;2.27;2.17;;;;;;;;;;5016860;28;20213;-89
2023/01/28 05:14:23;;;;;;;0.90;0.90;;;;;;;;;;5016800;28;20218;-89
2023/01/28 05:16:52;;;;;;;1.07;1.07;;;;;;;;;;5034659;28;20198;-89
2023/01/28 05:19:21;;;;;;;1.70;1.60;;;;;;;;;;5016572;28;20207;-89
2023/01/28 05:21:49;;;;;;;1.07;1.07;;;;;;;;;;5017084;28;20205;-89
2023/01/28 05:24:18;;;;;;;1.13;1.13;;;;;;;;;;5016868;28;20257;-89
2023/01/28 05:26:46;;;;;;;1.73;1.63;;;;;;;;;;5034401;28;20253;-89
2023/01/28 05:29:14;;;;;;;1.27;1.27;;;;;;;;;;5016917;28;20203;-89
2023/01/28 05:31:44;;;;;;;1.37;1.37;;;;;;;;;;5016840;28;20199;-89
2023/01/28 05:34:13;;;;;;;1.03;1.03;;;;;;;;;;5016220;28;20215;-89
2023/01/28 05:36:41;;;;;;;1.07;1.07;;;;;;;;;;5016634;28;20233;-89
2023/01/28 05:39:10;;;;;;;1.40;1.33;;;;;;;;;;5016447;28;20202;-89
2023/01/28 05:41:38;;;;;;;1.70;1.60;;;;;;;;;;5016338;28;20269;-89
2023/01/28 05:44:07;;;;;;;1.33;1.33;;;;;;;;;;5016584;28;20199;-89
2023/01/28 05:46:35;;;;;;;1.40;1.40;;;;;;;;;;5016261;28;20253;-89
2023/01/28 05:49:07;;;;;;;1.70;1.60;;;;;;;;;;5016520;28;20207;-89
2023/01/28 05:51:35;;;;;;;0.97;0.97;;;;;;;;;;5015908;28;20257;-88
2023/01/28 05:54:04;;;;;;;2.23;2.13;;;;;;;;;;5033706;28;20227;-89
2023/01/28 05:56:33;;;;;;;0.80;0.80;;;;;;;;;;5016716;28;20209;-88
2023/01/28 05:59:02;;;;;;;1.00;1.00;;;;;;;;;;5016197;28;20199;-89
2023/01/28 06:01:30;;;;;;;0.90;0.90;;;;;;;;;;5033546;28;20218;-89
2023/01/28 06:03:59;;;;;;;0.90;0.90;;;;;;;;;;5016131;28;20277;-89
2023/01/28 06:06:29;;;;;;;1.00;1.00;;;;;;;;;;5016467;28;20202;-89
2023/01/28 06:08:57;;;;;;;1.47;1.47;;;;;;;;;;5016223;28;20206;-89
2023/01/28 06:11:26;;;;;;;3.80;2.17;;;;;;;;;;5008222;28;20207;-89
2023/01/28 06:13:54;;;;;;;1.00;1.00;;;;;;;;;;5015956;28;20219;-89
2023/01/28 06:16:23;;;;;;;0.90;0.90;;;;;;;;;;5016479;28;20210;-89
2023/01/28 06:18:51;;;;;;;0.80;0.80;;;;;;;;;;5033728;28;20206;-89
2023/01/28 06:21:19;;;;;;;1.27;1.23;;;;;;;;;;5016105;28;20250;-90
2023/01/28 06:23:49;;;;;;;1.73;1.63;;;;;;;;;;5016185;28;20192;-88
2023/01/28 06:26:17;;;;;;;1.10;1.10;;;;;;;;;;5016213;28;20258;-89
2023/01/28 06:28:46;;;;;;;1.20;1.20;;;;;;;;;;5017094;28;20203;-90
2023/01/28 06:31:14;;;;;;;0.90;0.90;;;;;;;;;;5019905;28;20203;-88
2023/01/28 06:33:43;;;;;;;0.70;0.70;;;;;;;;;;5037591;28;20203;-89
2023/01/28 06:36:11;;;;;;;0.80;0.80;;;;;;;;;;5019744;28;20207;-89
2023/01/28 06:38:40;;;;;;;0.80;0.80;;;;;;;;;;5037328;28;20215;-89
2023/01/28 06:41:09;;;;;;;1.10;1.10;;;;;;;;;;5020039;28;20222;-89
2023/01/28 06:43:38;;;;;;;1.43;1.43;;;;;;;;;;5037499;28;20218;-89
2023/01/28 06:46:06;;;;;;;1.37;1.37;;;;;;;;;;5037325;28;20206;-89
2023/01/28 06:48:35;;;;;;;2.20;1.63;;;;;;;;;;5019716;28;20207;-89
2023/01/28 06:51:03;;;;;;;2.43;2.30;;;;;;;;;;5019421;28;20253;-89
2023/01/28 06:53:31;;;;;;;2.83;2.63;;;;;;;;;;5019377;28;20287;-89
2023/01/28 06:56:00;;;;;;;2.30;1.97;;;;;;;;;;5019089;28;20245;-89
2023/01/28 06:58:29;;;;;;;2.30;2.20;;;;;;;;;;5011317;28;20214;-89
2023/01/28 07:00:58;;;;;;;4.03;3.67;;;;;;;;;;5019510;28;20206;-89
2023/01/28 07:03:26;;;;;;;2.00;1.90;;;;;;;;;;5037067;28;20222;-89
2023/01/28 07:05:55;;;;;;;1.17;1.17;;;;;;;;;;5019403;28;20235;-89
2023/01/28 07:08:23;;;;;;;1.50;1.50;;;;;;;;;;5036827;28;20258;-89
2023/01/28 07:10:51;;;;;;;0.80;0.80;;;;;;;;;;5019063;28;20198;-89
2023/01/28 07:13:20;;;;;;;0.80;0.80;;;;;;;;;;5019037;28;20203;-89
2023/01/28 07:15:50;;;;;;;1.00;1.00;;;;;;;;;;5035352;28;20258;-89
2023/01/28 07:18:18;;;;;;;1.57;1.57;;;;;;;;;;5018906;28;20201;-89
2023/01/28 07:20:47;;;;;;;0.70;0.70;;;;;;;;;;5036710;28;20195;-89
2023/01/28 07:23:15;;;;;;;0.70;0.70;;;;;;;;;;5018974;28;20203;-89
2023/01/28 07:25:44;;;;;;;0.83;0.83;;;;;;;;;;5036456;28;20203;-89
2023/01/28 07:28:12;;;;;;;1.00;1.00;;;;;;;;;;5018782;28;20345;-89
2023/01/28 07:30:40;;;;;;;0.80;0.80;;;;;;;;;;5036041;28;20225;-89
2023/01/28 07:33:10;;;;;;;3.40;1.63;;;;;;;;;;5018559;28;20209;-90
2023/01/28 07:35:39;;;;;;;1.03;1.03;;;;;;;;;;5036516;28;20237;-89
2023/01/28 07:38:07;;;;;;;1.00;1.00;;;;;;;;;;5036425;28;20202;-89
2023/01/28 07:40:35;;;;;;;0.93;0.93;;;;;;;;;;5017577;28;20206;-89
2023/01/28 07:43:06;;;;;;;1.00;1.00;;;;;;;;;;5018771;28;20203;-89
2023/01/28 07:45:34;;;;;;;0.90;0.90;;;;;;;;;;5018671;28;20273;-88
2023/01/28 07:48:04;;;;;;;0.80;0.80;;;;;;;;;;5018544;28;20206;-88
2023/01/28 07:50:35;;;;;;;1.47;1.47;;;;;;;;;;5018038;28;20206;-89
2023/01/28 07:53:04;;;;;;;5.20;1.53;;;;;;;;;;5018461;28;20215;-89
2023/01/28 07:55:34;;;;;;;0.80;0.80;;;;;;;;;;5018166;28;20234;-89
2023/01/28 07:58:03;;;;;;;1.63;1.53;;;;;;;;;;5036011;28;20203;-89
2023/01/28 08:00:33;;;;;;;1.00;1.00;;;;;;;;;;5018462;28;20210;-89
2023/01/28 08:03:02;;;;;;;1.00;1.00;;;;;;;;;;5018205;28;20268;-88
2023/01/28 08:05:34;;;;;;;0.80;0.80;;;;;;;;;;5017849;28;20274;-89
2023/01/28 08:08:04;;;;;;;0.80;0.80;;;;;;;;;;5018401;28;20255;-88
2023/01/28 08:10:33;;;;;;;0.73;0.73;;;;;;;;;;5017846;28;20282;-88
2023/01/28 08:13:01;;;;;;;1.80;1.70;;;;;;;;;;5035629;28;20199;-88
2023/01/28 08:15:30;;;;;;;0.90;0.90;;;;;;;;;;5018082;28;20235;-89
2023/01/28 08:18:02;;;;;;;0.93;0.93;;;;;;;;;;5017797;28;20210;-89
2023/01/28 08:20:30;;;;;;;0.80;0.80;;;;;;;;;;5035829;28;20203;-88
2023/01/28 08:23:07;;;;;;;0.90;0.90;;;;;;;;;;5017657;28;20212;-90
2023/01/28 08:25:36;;;;;;;0.80;0.80;;;;;;;;;;5017935;28;20201;-89
2023/01/28 08:28:05;;;;;;;0.80;0.80;;;;;;;;;;5017762;28;20194;-89
2023/01/28 08:30:34;;;;;;;1.10;1.10;;;;;;;;;;5017467;28;20216;-89
2023/01/28 08:33:02;;;;;;;0.80;0.80;;;;;;;;;;5035122;28;20198;-88
2023/01/28 08:35:31;;;;;;;0.80;0.80;;;;;;;;;;5017698;28;20225;-89
2023/01/28 08:38:00;;;;;;;0.80;0.80;;;;;;;;;;5017521;28;20253;-89
2023/01/28 08:40:30;;;;;;;0.80;0.80;;;;;;;;;;5017885;28;20202;-89
2023/01/28 08:42:59;;;;;;;0.80;0.80;;;;;;;;;;5017481;28;20207;-89
2023/01/28 08:45:28;;;;;;;0.80;0.80;;;;;;;;;;5017672;28;20222;-89
2023/01/28 08:47:57;;;;;;;0.80;0.80;;;;;;;;;;5035015;28;20195;-90
2023/01/28 08:50:31;;;;;;;0.80;0.80;;;;;;;;;;5016277;28;20207;-88
2023/01/28 08:53:04;;;;;;;0.97;0.97;;;;;;;;;;5032279;28;20195;-89
2023/01/28 08:55:34;;;;;;;0.80;0.80;;;;;;;;;;5003204;28;20220;-89
2023/01/28 08:58:03;;;;;;;0.70;0.70;;;;;;;;;;4997294;28;20192;-89
2023/01/28 09:00:33;;;;;;;0.80;0.80;;;;;;;;;;5014586;28;20301;-89
2023/01/28 09:03:02;;;;;;;1.23;1.23;;;;;;;;;;4997135;28;20266;-88
2023/01/28 09:05:34;;;;;;;1.40;1.40;;;;;;;;;;5013734;28;20322;-89
2023/01/28 09:08:03;;;;;;;2.63;2.43;;;;;;;;;;5014782;28;20210;-89
2023/01/28 09:10:31;;;;;;;4.37;2.87;;;;;;;;;;4997530;28;20250;-88
2023/01/28 09:13:04;;;;;;;2.10;2.00;;;;;;;;;;4997245;28;20219;-89
2023/01/28 09:15:33;;;;;;;3.80;2.83;;;;;;;;;;4997511;28;20267;-89
2023/01/28 09:18:01;;;;;;;8.50;3.87;;;;;;;;;;5013505;28;20204;-89
2023/01/28 09:20:31;;;;;;;0.90;0.90;;;;;;;;;;4997308;28;20250;-89
2023/01/28 09:22:59;;;;;;;0.83;0.83;;;;;;;;;;5013293;28;20208;-88
2023/01/28 09:25:28;;;;;;;2.13;2.03;;;;;;;;;;4997213;28;20196;-89
2023/01/28 09:27:56;;;;;;;0.83;0.83;;;;;;;;;;5014617;28;20192;-89
2023/01/28 09:30:26;;;;;;;1.00;1.00;;;;;;;;;;5012589;28;20202;-89
2023/01/28 09:32:56;;;;;;;1.00;1.00;;;;;;;;;;4996087;28;20187;-88
2023/01/28 09:35:25;;;;;;;0.80;0.80;;;;;;;;;;5015179;28;20192;-89
2023/01/28 09:37:57;;;;;;;1.20;1.20;;;;;;;;;;5014839;28;20223;-89
2023/01/28 09:40:30;;;;;;;0.80;0.80;;;;;;;;;;5014269;28;20199;-89
2023/01/28 09:43:04;;;;;;;2.00;1.90;;;;;;;;;;5013111;28;20199;-89
2023/01/28 09:45:36;;;;;;;1.00;1.00;;;;;;;;;;4996732;28;20200;-88
2023/01/28 09:48:06;;;;;;;0.80;0.80;;;;;;;;;;5013252;28;20299;-89
2023/01/28 09:50:35;;;;;;;1.00;1.00;;;;;;;;;;4996928;28;20229;-89
2023/01/28 09:53:06;;;;;;;1.17;1.17;;;;;;;;;;4996371;28;20203;-88
2023/01/28 09:55:36;;;;;;;0.80;0.80;;;;;;;;;;5014277;28;20254;-89
2023/01/28 09:58:06;;;;;;;0.80;0.80;;;;;;;;;;5014112;28;20218;-89
2023/01/28 10:00:39;;;;;;;0.80;0.80;;;;;;;;;;4996639;28;20191;-89
2023/01/28 10:03:24;;;;;;;0.80;0.80;;;;;;;;;;4996668;28;20220;-89
2023/01/28 10:05:58;;;;;;;0.80;0.80;;;;;;;;;;5017427;28;20269;-89
2023/01/28 10:08:36;;;;;;;3.03;2.80;;;;;;;;;;5000616;28;20207;-89
2023/01/28 10:11:11;;;;;;;2.13;2.00;;;;;;;;;;5000420;28;20202;-88
2023/01/28 10:13:45;;;;;;;0.80;0.80;;;;;;;;;;5018290;28;20191;-89
2023/01/28 10:16:19;;;;;;;1.40;1.40;;;;;;;;;;5000749;28;20241;-89
2023/01/28 10:18:51;;;;;;;2.53;2.33;;;;;;;;;;5000628;28;20191;-89
2023/01/28 10:21:21;;;;;;;2.03;1.83;;;;;;;;;;5000533;28;20198;-89
2023/01/28 10:23:58;;;;;;;4.60;2.53;;;;;;;;;;5000406;28;20204;-89
2023/01/28 10:26:30;;;;;;;0.90;0.90;;;;;;;;;;5017091;28;20195;-89
2023/01/28 10:29:01;;;;;;;3.13;2.90;;;;;;;;;;5000649;28;20235;-89
2023/01/28 10:31:33;;;;;;;3.83;3.53;;;;;;;;;;5000248;28;20208;-89
2023/01/28 10:34:03;;;;;;;5.83;4.47;;;;;;;;;;5016947;28;20200;-90
2023/01/28 10:36:31;;;;;;;7.40;5.33;;;;;;;;;;5000215;28;20230;-88
2023/01/28 10:39:00;;;;;;;5.97;4.30;;;;;;;;;;5000339;28;20229;-89
2023/01/28 10:41:28;;;;;;;3.10;2.67;;;;;;;;;;4992687;28;20204;-89
2023/01/28 10:43:58;;;;;;;3.63;3.30;;;;;;;;;;5000842;28;20251;-89
2023/01/28 10:46:29;;;;;;;3.73;2.43;;;;;;;;;;5016376;28;20215;-88
2023/01/28 10:49:03;;;;;;;6.90;4.50;;;;;;;;;;5000308;28;20228;-88
2023/01/28 10:51:32;;;;;;;9.03;4.17;;;;;;;;;;5017247;28;20210;-89
2023/01/28 10:54:01;;;;;;;5.43;4.90;;;;;;;;;;5017781;28;20191;-89
2023/01/28 10:56:30;;;;;;;6.57;5.97;;;;;;;;;;5016673;28;20219;-89
2023/01/28 10:59:01;;;;;;;2.63;2.17;;;;;;;;;;5017232;28;20274;-89
2023/01/28 11:01:40;;;;;;;3.27;2.93;;;;;;;;;;5000106;28;20204;-89
2023/01/28 11:04:22;;;;;;;2.87;2.67;;;;;;;;;;5017382;28;20243;-89
2023/01/28 11:06:55;;;;;;;5.97;5.03;;;;;;;;;;4999883;28;20266;-89
2023/01/28 11:09:24;;;;;;;3.30;1.87;;;;;;;;;;5016074;28;20203;-89
2023/01/28 11:11:53;;;;;;;7.23;4.73;;;;;;;;;;4999915;28;20219;-89
2023/01/28 11:14:25;;;;;;;6.33;4.23;;;;;;;;;;4999941;28;20215;-89
2023/01/28 11:16:55;;;;;;;4.70;3.83;;;;;;;;;;5016868;28;20220;-89
2023/01/28 11:19:27;;;;;;;9.60;6.23;;;;;;;;;;4999496;28;20314;-89
2023/01/28 11:21:57;;;;;;;6.07;4.30;;;;;;;;;;4999410;28;20203;-89
2023/01/28 11:24:27;;;;;;;3.80;2.73;;;;;;;;;;4999609;28;20207;-89
2023/01/28 11:26:57;;;;;;;3.60;3.23;;;;;;;;;;4999839;28;20246;-89
2023/01/28 11:29:28;;;;;;;4.33;2.97;;;;;;;;;;4999510;28;20207;-89
2023/01/28 11:31:56;;;;;;;6.03;3.80;;;;;;;;;;4999279;28;20218;-89
2023/01/28 11:34:28;;;;;;;1.10;1.10;;;;;;;;;;5017334;28;20210;-89
2023/01/28 11:37:04;;;;;;;4.07;3.23;;;;;;;;;;5015478;28;20242;-89
2023/01/28 11:39:33;;;;;;;6.90;3.43;;;;;;;;;;5016821;28;20203;-89
2023/01/28 11:42:11;;;;;;;2.33;2.13;;;;;;;;;;5016883;28;20196;-89
2023/01/28 11:44:39;;;;;;;1.07;1.07;;;;;;;;;;5015654;28;20195;-89
2023/01/28 11:47:24;;;;;;;2.93;2.50;;;;;;;;;;4999225;28;20200;-89
2023/01/28 11:50:02;;;;;;;1.13;1.13;;;;;;;;;;5013522;28;20199;-90
2023/01/28 11:52:35;;;;;;;0.90;0.90;;;;;;;;;;4999002;28;20203;-89
2023/01/28 11:55:35;;;;;;;0.93;0.93;;;;;;;;;;5016408;28;20204;-89
2023/01/28 11:58:07;;;;;;;0.70;0.70;;;;;;;;;;5016586;28;20285;-89
2023/01/28 12:00:39;;;;;;;0.70;0.70;;;;;;;;;;5016663;28;20192;-89
2023/01/28 12:03:22;;;;;;;1.10;1.10;;;;;;;;;;5014979;28;20223;-89
2023/01/28 12:05:53;;;;;;;1.20;1.20;;;;;;;;;;5015864;28;20278;-89
2023/01/28 12:08:24;;;;;;;1.97;1.50;;;;;;;;;;4998709;28;20211;-89
2023/01/28 12:10:59;;;;;;;3.17;1.23;;;;;;;;;;5015232;28;20222;-89
2023/01/28 12:13:32;;;;;;;0.70;0.70;;;;;;;;;;5008423;28;20203;-89
2023/01/28 12:16:15;;;;;;;0.80;0.80;;;;;;;;;;5014780;28;20204;-89
2023/01/28 12:19:02;;;;;;;0.77;0.77;;;;;;;;;;5013344;28;20226;-90
2023/01/28 12:21:37;;;;;;;0.93;0.93;;;;;;;;;;5016404;28;20200;-89
2023/01/28 12:24:11;;;;;;;1.73;1.63;;;;;;;;;;5016103;28;20199;-89
2023/01/28 12:26:45;;;;;;;2.17;1.77;;;;;;;;;;5014060;28;20227;-89
2023/01/28 12:29:19;;;;;;;1.97;1.73;;;;;;;;;;4998676;28;20250;-89
2023/01/28 12:32:04;;;;;;;0.80;0.80;;;;;;;;;;5015171;28;20203;-89
2023/01/28 12:34:51;;;;;;;0.80;0.80;;;;;;;;;;4998642;28;20214;-89
2023/01/28 12:37:27;;;;;;;1.00;1.00;;;;;;;;;;5014823;28;20226;-89
2023/01/28 12:40:00;;;;;;;0.70;0.70;;;;;;;;;;4998230;28;20199;-89
2023/01/28 12:42:33;;;;;;;0.80;0.80;;;;;;;;;;5015842;28;20258;-89
2023/01/28 12:45:04;;;;;;;0.70;0.70;;;;;;;;;;5015276;28;20207;-90
2023/01/28 12:47:35;;;;;;;0.70;0.70;;;;;;;;;;4998462;28;20235;-89
2023/01/28 12:50:05;;;;;;;0.70;0.70;;;;;;;;;;5015439;28;20195;-89
2023/01/28 12:52:38;;;;;;;0.70;0.70;;;;;;;;;;5014313;28;20266;-89
2023/01/28 12:55:13;;;;;;;0.70;0.70;;;;;;;;;;4997983;28;20192;-89
2023/01/28 12:57:42;;;;;;;0.93;0.93;;;;;;;;;;5015543;28;20220;-89
2023/01/28 13:00:19;;;;;;;0.73;0.70;;;;;;;;;;4997774;28;20207;-89
2023/01/28 13:02:50;;;;;;;0.80;0.80;;;;;;;;;;4998037;28;20219;-89
2023/01/28 13:05:20;;;;;;;0.70;0.70;;;;;;;;;;5015040;28;20240;-89
2023/01/28 13:07:53;;;;;;;0.70;0.70;;;;;;;;;;5014103;28;20295;-89
2023/01/28 13:10:25;;;;;;;1.50;1.40;;;;;;;;;;5015369;28;20211;-89
2023/01/28 13:12:54;;;;;;;1.00;1.00;;;;;;;;;;5015071;28;20200;-89
2023/01/28 13:15:23;;;;;;;0.90;0.90;;;;;;;;;;5013903;28;20248;-89
2023/01/28 13:17:58;;;;;;;1.00;1.00;;;;;;;;;;5014639;28;20219;-90
2023/01/28 13:20:31;;;;;;;3.03;1.27;;;;;;;;;;5014945;28;20211;-89
2023/01/28 13:23:02;;;;;;;1.27;1.17;;;;;;;;;;5014917;28;20201;-90
2023/01/28 13:25:33;;;;;;;3.20;0.90;;;;;;;;;;5014237;28;20215;-89
2023/01/28 13:28:03;;;;;;;1.17;1.10;;;;;;;;;;5014775;28;20279;-90
2023/01/28 13:30:32;;;;;;;4.73;1.73;;;;;;;;;;5014675;28;20199;-89
2023/01/28 13:33:02;;;;;;;1.70;1.63;;;;;;;;;;5013732;28;20207;-90
2023/01/28 13:35:34;;;;;;;1.00;1.00;;;;;;;;;;4997183;28;20207;-90
2023/01/28 13:38:15;;;;;;;1.73;1.63;;;;;;;;;;4997159;28;20216;-90
2023/01/28 13:40:44;;;;;;;1.27;1.27;;;;;;;;;;5013701;28;20555;-90
2023/01/28 13:43:36;;;;;;;1.50;1.37;;;;;;;;;;4997504;28;20199;-89
2023/01/28 13:46:06;;;;;;;1.63;1.53;;;;;;;;;;4997279;28;20203;-90
2023/01/28 13:48:39;;;;;;;1.33;1.33;;;;;;;;;;5013419;28;20201;-90
2023/01/28 13:51:13;;;;;;;1.30;1.20;;;;;;;;;;4997211;28;20203;-90
2023/01/28 13:53:46;;;;;;;1.73;1.63;;;;;;;;;;4997305;28;20203;-89
2023/01/28 13:56:20;;;;;;;1.37;1.27;;;;;;;;;;4997011;28;20215;-90
2023/01/28 13:59:05;;;;;;;1.63;1.63;;;;;;;;;;4997445;28;20230;-90
2023/01/28 14:01:51;;;;;;;1.90;1.57;;;;;;;;;;4997032;28;20294;-89
2023/01/28 14:04:27;;;;;;;1.10;1.10;;;;;;;;;;5013314;28;20231;-89
2023/01/28 14:07:14;;;;;;;6.60;1.03;;;;;;;;;;5014375;28;20211;-90
2023/01/28 14:10:00;;;;;;;1.57;1.47;;;;;;;;;;4996929;28;20205;-90
2023/01/28 14:12:38;;;;;;;0.87;0.87;;;;;;;;;;5011634;28;20215;-90
2023/01/28 14:15:26;;;;;;;0.87;0.83;;;;;;;;;;4997022;28;20207;-89
2023/01/28 14:17:55;;;;;;;1.10;1.10;;;;;;;;;;4997000;28;20209;-90
2023/01/28 14:20:26;;;;;;;1.00;1.00;;;;;;;;;;5013511;28;20195;-89
2023/01/28 14:22:58;;;;;;;1.33;1.23;;;;;;;;;;4997252;28;20196;-89
2023/01/28 14:25:30;;;;;;;1.77;1.67;;;;;;;;;;4996659;28;20204;-90
2023/01/28 14:28:01;;;;;;;1.80;1.70;;;;;;;;;;4996682;28;20247;-90
2023/01/28 14:30:36;;;;;;;0.90;0.90;;;;;;;;;;4996690;28;20200;-90
2023/01/28 14:33:04;;;;;;;2.53;1.70;;;;;;;;;;5013044;28;20199;-89
2023/01/28 14:35:34;;;;;;;5.13;3.30;;;;;;;;;;5014189;28;20287;-89
2023/01/28 14:38:08;;;;;;;1.40;1.30;;;;;;;;;;4996862;28;20220;-89
2023/01/28 14:40:37;;;;;;;3.47;2.23;;;;;;;;;;4996927;28;20209;-90
2023/01/28 14:43:08;;;;;;;1.23;1.20;;;;;;;;;;5014177;28;20224;-90
2023/01/28 14:45:44;;;;;;;2.20;1.90;;;;;;;;;;5014096;28;20196;-90
2023/01/28 14:48:20;;;;;;;2.50;2.30;;;;;;;;;;4996720;28;20203;-90
2023/01/28 14:51:02;;;;;;;1.40;1.30;;;;;;;;;;5015556;28;20224;-89
2023/01/28 14:54:04;;;;;;;1.97;1.77;;;;;;;;;;5016790;28;20210;-89
2023/01/28 14:56:37;;;;;;;3.27;1.63;;;;;;;;;;4922210;29;20202;-89
2023/01/28 14:59:13;;;;;;;3.33;3.03;;;;;;;;;;4922303;29;20228;-90
2023/01/28 15:01:44;;;;;;;1.03;1.03;;;;;;;;;;4981192;28;20216;-89
2023/01/28 15:04:24;;;;;;;4.87;4.37;;;;;;;;;;5000062;28;20203;-89
2023/01/28 15:06:52;;;;;;;2.83;1.73;;;;;;;;;;5000068;28;20204;-89
2023/01/28 15:09:21;;;;;;;1.53;1.43;;;;;;;;;;5000673;28;20198;-89
2023/01/28 15:11:51;;;;;;;2.80;2.53;;;;;;;;;;4999823;28;20207;-90
2023/01/28 15:14:26;;;;;;;4.10;2.40;;;;;;;;;;5000836;28;20192;-89
2023/01/28 15:16:56;;;;;;;4.53;2.60;;;;;;;;;;5016102;28;20200;-90
2023/01/28 15:19:27;;;;;;;2.73;2.30;;;;;;;;;;5016658;28;20226;-90
2023/01/28 15:21:56;;;;;;;4.40;2.10;;;;;;;;;;5016793;28;20200;-90
2023/01/28 15:24:24;;;;;;;4.47;2.50;;;;;;;;;;5015669;28;20215;-89
2023/01/28 15:26:52;;;;;;;5.07;3.27;;;;;;;;;;4999691;28;20202;-90
2023/01/28 15:29:25;;;;;;;2.43;1.67;;;;;;;;;;5016844;28;20203;-90
2023/01/28 15:31:54;;;;;;;1.47;1.47;;;;;;;;;;5016506;28;20222;-89
2023/01/28 15:34:28;;;;;;;54.83;3.83;;;;;;;;;;4999923;28;20207;-89